Time;durP1;ratioP1;P1;durP2;ratioP2;P2;SDS_P1;SDS_P2;PMS_P1;PMS_P2;Temp;Humidity;BMP_temperature;BMP_pressure;BME280_temperature;BME280_humidity;BME280_pressure;Samples;Min_cycle;Max_cycle;Signal;HPM_P1;HPM_P2
2022/08/02 00:00:47;;;;;;;4.27;3.23;;;21.70;99.90;;;;;;4981038;28;20222;-83
2022/08/02 00:03:12;;;;;;;3.03;2.50;;;21.70;99.90;;;;;;4985651;28;20251;-82
2022/08/02 00:05:38;;;;;;;4.17;2.57;;;21.60;99.90;;;;;;4964900;28;20191;-84
2022/08/02 00:08:04;;;;;;;3.83;3.43;;;21.60;99.90;;;;;;4982442;28;20188;-84
2022/08/02 00:10:29;;;;;;;6.33;2.70;;;21.70;99.90;;;;;;4966315;28;20279;-83
2022/08/02 00:12:55;;;;;;;5.10;2.50;;;21.80;99.90;;;;;;4973400;28;20201;-83
2022/08/02 00:15:21;;;;;;;6.83;2.57;;;21.90;99.90;;;;;;4965272;28;20215;-83
2022/08/02 00:17:47;;;;;;;3.30;2.40;;;22.00;99.90;;;;;;4982600;28;20200;-82
2022/08/02 00:20:13;;;;;;;3.40;2.33;;;22.00;99.90;;;;;;4968309;28;21836;-84
2022/08/02 00:22:39;;;;;;;2.97;2.10;;;22.00;99.90;;;;;;4984324;28;20470;-83
2022/08/02 00:25:05;;;;;;;3.57;2.10;;;22.00;99.90;;;;;;4981317;28;20479;-83
2022/08/02 00:27:30;;;;;;;3.13;2.50;;;22.00;99.90;;;;;;4965009;28;20499;-82
2022/08/02 00:29:56;;;;;;;3.07;2.77;;;22.00;99.90;;;;;;4965137;28;21010;-84
2022/08/02 00:32:22;;;;;;;3.50;2.70;;;21.90;99.90;;;;;;4969281;28;20678;-82
2022/08/02 00:34:49;;;;;;;3.67;2.60;;;21.70;99.90;;;;;;4966489;28;20208;-84
2022/08/02 00:37:14;;;;;;;2.80;2.27;;;21.80;99.90;;;;;;4965802;28;20436;-82
2022/08/02 00:39:41;;;;;;;5.30;2.90;;;21.90;99.90;;;;;;4964959;28;20458;-82
2022/08/02 00:42:07;;;;;;;7.47;3.60;;;21.90;99.90;;;;;;4985300;28;20187;-85
2022/08/02 00:44:33;;;;;;;3.10;2.70;;;21.90;99.90;;;;;;4964448;28;20471;-83
2022/08/02 00:46:58;;;;;;;3.40;2.83;;;21.90;99.90;;;;;;4984672;28;20215;-84
2022/08/02 00:49:24;;;;;;;7.87;3.73;;;21.80;99.90;;;;;;4981398;28;20212;-88
2022/08/02 00:51:49;;;;;;;4.03;3.57;;;21.80;99.90;;;;;;4964279;28;20605;-84
2022/08/02 00:54:15;;;;;;;5.60;2.97;;;21.70;99.90;;;;;;4976936;28;20487;-83
2022/08/02 00:56:41;;;;;;;5.70;3.07;;;21.60;99.90;;;;;;4964405;28;20191;-82
2022/08/02 00:59:06;;;;;;;5.20;3.33;;;21.60;99.90;;;;;;4962144;28;20218;-83
2022/08/02 01:01:37;;;;;;;5.00;3.17;;;21.50;99.90;;;;;;4965726;28;20191;-85
2022/08/02 01:04:11;;;;;;;4.30;3.10;;;21.50;99.90;;;;;;4976402;28;20219;-81
2022/08/02 01:06:38;;;;;;;4.60;3.40;;;21.30;99.90;;;;;;4976197;28;20483;-85
2022/08/02 01:09:05;;;;;;;5.03;2.90;;;21.30;99.90;;;;;;4961685;28;20510;-83
2022/08/02 01:11:32;;;;;;;5.47;2.77;;;21.30;99.90;;;;;;4963967;28;20445;-86
2022/08/02 01:14:12;;;;;;;4.00;3.13;;;21.30;99.90;;;;;;4963245;28;20482;-83
2022/08/02 01:17:06;;;;;;;5.17;3.37;;;21.20;99.90;;;;;;4982902;28;20461;-84
2022/08/02 01:20:04;;;;;;;4.40;2.63;;;21.20;99.90;;;;;;4963796;28;21005;-82
2022/08/02 01:22:48;;;;;;;3.83;2.80;;;21.20;99.90;;;;;;4978575;28;20431;-86
2022/08/02 01:25:33;;;;;;;4.33;3.30;;;21.10;99.90;;;;;;4962739;28;20463;-86
2022/08/02 01:28:28;;;;;;;3.57;2.13;;;21.00;99.90;;;;;;4982589;28;20461;-84
2022/08/02 01:31:15;;;;;;;5.87;3.30;;;21.00;99.90;;;;;;4961158;28;21032;-83
2022/08/02 01:33:47;;;;;;;4.30;3.10;;;21.00;99.90;;;;;;4959238;28;20557;-83
2022/08/02 01:36:16;;;;;;;5.07;2.77;;;21.00;99.90;;;;;;4979819;28;20438;-83
2022/08/02 01:38:47;;;;;;;3.50;2.30;;;20.90;99.90;;;;;;4984548;28;20455;-82
2022/08/02 01:41:20;;;;;;;3.90;2.97;;;20.90;99.90;;;;;;4978716;28;20979;-83
2022/08/02 01:43:48;;;;;;;7.40;4.40;;;20.90;99.90;;;;;;4982091;28;20498;-85
2022/08/02 01:46:15;;;;;;;6.17;3.20;;;20.90;99.90;;;;;;4974407;28;20825;-84
2022/08/02 01:48:42;;;;;;;5.07;3.27;;;20.90;99.90;;;;;;4965827;28;20453;-81
2022/08/02 01:51:12;;;;;;;5.30;3.40;;;20.90;99.90;;;;;;4975691;28;20451;-84
2022/08/02 01:53:41;;;;;;;5.77;3.07;;;21.00;99.90;;;;;;4965918;28;20547;-85
2022/08/02 01:56:08;;;;;;;4.20;2.43;;;21.00;99.90;;;;;;4984277;28;20443;-82
2022/08/02 01:58:36;;;;;;;3.50;2.40;;;21.00;99.90;;;;;;4966940;28;20795;-83
2022/08/02 02:01:05;;;;;;;3.70;2.07;;;21.00;99.90;;;;;;4978910;28;20534;-84
2022/08/02 02:03:31;;;;;;;3.23;2.30;;;21.20;99.90;;;;;;4983459;28;20478;-85
2022/08/02 02:05:58;;;;;;;5.30;1.90;;;21.30;99.90;;;;;;4969654;28;20434;-83
2022/08/02 02:08:27;;;;;;;3.03;2.47;;;21.30;99.90;;;;;;4959848;28;20439;-84
2022/08/02 02:10:55;;;;;;;5.00;2.80;;;21.30;99.90;;;;;;4966143;28;20440;-84
2022/08/02 02:13:21;;;;;;;5.63;2.97;;;21.40;99.90;;;;;;4984040;28;20459;-83
2022/08/02 02:15:49;;;;;;;3.90;2.80;;;21.50;99.90;;;;;;4978191;28;20510;-83
2022/08/02 02:18:23;;;;;;;4.77;2.87;;;21.40;99.90;;;;;;4968409;28;20447;-83
2022/08/02 02:20:49;;;;;;;3.20;2.53;;;21.30;99.90;;;;;;4963815;28;20600;-84
2022/08/02 02:23:16;;;;;;;5.37;3.87;;;21.20;99.90;;;;;;4980954;28;21005;-83
2022/08/02 02:25:42;;;;;;;5.70;3.87;;;21.20;99.90;;;;;;4963418;28;20800;-82
2022/08/02 02:28:13;;;;;;;5.20;4.00;;;21.20;99.90;;;;;;4960961;28;20537;-83
2022/08/02 02:30:44;;;;;;;5.77;3.50;;;21.10;99.90;;;;;;4957925;28;20790;-85
2022/08/02 02:33:12;;;;;;;4.40;3.17;;;21.00;99.90;;;;;;4967775;28;21561;-83
2022/08/02 02:35:39;;;;;;;5.30;3.80;;;20.90;99.90;;;;;;4977614;28;20495;-83
2022/08/02 02:38:10;;;;;;;4.60;3.50;;;21.00;99.90;;;;;;4965623;28;20454;-84
2022/08/02 02:40:37;;;;;;;4.70;4.10;;;21.00;99.90;;;;;;4961674;28;20440;-82
2022/08/02 02:43:05;;;;;;;5.77;3.33;;;20.90;99.90;;;;;;4962821;28;20989;-86
2022/08/02 02:45:32;;;;;;;6.67;3.90;;;20.80;99.90;;;;;;4962816;28;20454;-84
2022/08/02 02:48:01;;;;;;;6.30;4.97;;;20.70;99.90;;;;;;4979823;28;20450;-84
2022/08/02 02:50:28;;;;;;;8.40;4.67;;;20.70;99.90;;;;;;4968553;28;20446;-83
2022/08/02 02:52:54;;;;;;;7.27;4.83;;;20.60;99.90;;;;;;4967980;28;20480;-82
2022/08/02 02:55:21;;;;;;;8.63;4.33;;;20.60;99.90;;;;;;4965730;28;20881;-83
2022/08/02 02:57:47;;;;;;;4.60;3.70;;;20.60;99.90;;;;;;4981736;28;20442;-83
2022/08/02 03:00:14;;;;;;;5.17;3.20;;;20.60;99.90;;;;;;4978447;28;20441;-84
2022/08/02 03:02:42;;;;;;;6.70;4.90;;;20.60;99.90;;;;;;4981318;28;20473;-83
2022/08/02 03:05:10;;;;;;;6.63;5.00;;;20.50;99.90;;;;;;4984251;28;20468;-88
2022/08/02 03:07:36;;;;;;;8.03;4.57;;;20.50;99.90;;;;;;4967871;28;20453;-83
2022/08/02 03:10:05;;;;;;;3.60;3.20;;;20.50;99.90;;;;;;4965556;28;20454;-83
2022/08/02 03:12:32;;;;;;;9.53;4.57;;;20.50;99.90;;;;;;4964530;28;20466;-87
2022/08/02 03:15:00;;;;;;;9.60;5.70;;;20.40;99.90;;;;;;4988410;28;20576;-85
2022/08/02 03:17:35;;;;;;;7.67;4.93;;;20.40;99.90;;;;;;4980335;28;20440;-85
2022/08/02 03:20:01;;;;;;;5.00;4.50;;;20.40;99.90;;;;;;4967142;28;20438;-83
2022/08/02 03:22:26;;;;;;;6.40;4.90;;;20.30;99.90;;;;;;4983958;28;20435;-85
2022/08/02 03:24:52;;;;;;;4.13;3.70;;;20.30;99.90;;;;;;4968068;28;20283;-84
2022/08/02 03:27:17;;;;;;;10.00;4.50;;;20.30;99.90;;;;;;4968294;28;20193;-82
2022/08/02 03:29:43;;;;;;;5.67;4.20;;;20.30;99.90;;;;;;4986951;28;20190;-83
2022/08/02 03:32:08;;;;;;;5.23;4.20;;;20.30;99.90;;;;;;4981379;28;20220;-83
2022/08/02 03:34:34;;;;;;;4.50;3.80;;;20.30;99.90;;;;;;4986106;28;20609;-83
2022/08/02 03:37:01;;;;;;;3.87;3.50;;;20.30;99.90;;;;;;4985465;28;20190;-83
2022/08/02 03:39:27;;;;;;;6.10;4.90;;;20.40;99.90;;;;;;4965864;28;20641;-84
2022/08/02 03:41:54;;;;;;;5.90;4.40;;;20.40;99.90;;;;;;4984159;28;20831;-83
2022/08/02 03:44:19;;;;;;;5.20;3.20;;;20.30;99.90;;;;;;4966942;28;20491;-85
2022/08/02 03:46:46;;;;;;;6.17;3.00;;;20.30;99.90;;;;;;4979680;28;20470;-83
2022/08/02 03:49:15;;;;;;;8.60;4.43;;;20.40;99.90;;;;;;4985488;28;20232;-84
2022/08/02 03:51:41;;;;;;;8.80;4.53;;;20.30;99.90;;;;;;4968517;28;20487;-83
2022/08/02 03:54:07;;;;;;;5.70;4.30;;;20.20;99.90;;;;;;4965064;28;20474;-83
2022/08/02 03:56:33;;;;;;;8.17;4.37;;;20.10;99.90;;;;;;4981766;28;20998;-82
2022/08/02 03:59:10;;;;;;;4.93;3.63;;;20.00;99.90;;;;;;4984382;28;20443;-83
2022/08/02 04:01:35;;;;;;;3.77;3.20;;;19.90;99.90;;;;;;4969716;28;20814;-83
2022/08/02 04:04:01;;;;;;;5.63;3.50;;;20.00;99.90;;;;;;4984650;28;20481;-82
2022/08/02 04:06:27;;;;;;;5.63;3.57;;;20.10;99.90;;;;;;4966094;28;20198;-86
2022/08/02 04:08:52;;;;;;;4.77;3.40;;;20.20;99.90;;;;;;4969305;28;20203;-83
2022/08/02 04:11:29;;;;;;;3.40;2.67;;;20.30;99.90;;;;;;4985523;28;20197;-84
2022/08/02 04:13:56;;;;;;;4.03;2.70;;;20.30;99.90;;;;;;4968057;28;20709;-84
2022/08/02 04:16:28;;;;;;;5.07;3.87;;;20.40;99.90;;;;;;4980463;28;20454;-85
2022/08/02 04:19:01;;;;;;;9.60;5.00;;;20.50;99.90;;;;;;4982697;28;20894;-84
2022/08/02 04:21:32;;;;;;;8.03;5.13;;;20.40;99.90;;;;;;4983482;28;20953;-84
2022/08/02 04:23:59;;;;;;;5.70;4.20;;;20.30;99.90;;;;;;4974309;23;20500;-84
2022/08/02 04:26:25;;;;;;;4.33;2.50;;;20.30;99.90;;;;;;5008099;28;20464;-87
2022/08/02 04:28:51;;;;;;;6.40;4.43;;;20.30;99.90;;;;;;5004224;28;20448;-81
2022/08/02 04:31:18;;;;;;;6.07;4.30;;;20.30;99.90;;;;;;4991000;28;20472;-83
2022/08/02 04:33:45;;;;;;;7.30;5.00;;;20.40;99.90;;;;;;5004663;28;20877;-83
2022/08/02 04:36:13;;;;;;;8.50;4.43;;;20.40;99.90;;;;;;5005397;28;20444;-84
2022/08/02 04:38:40;;;;;;;3.83;2.87;;;20.50;99.90;;;;;;5001369;28;20447;-83
2022/08/02 04:41:06;;;;;;;7.80;4.40;;;20.60;99.90;;;;;;5004742;28;20486;-89
2022/08/02 04:43:32;;;;;;;8.97;4.67;;;20.70;99.90;;;;;;5009897;28;20529;-85
2022/08/02 04:45:57;;;;;;;8.67;4.33;;;20.80;99.90;;;;;;5004492;28;20212;-83
2022/08/02 04:48:23;;;;;;;6.03;4.10;;;20.90;99.90;;;;;;5006922;28;20187;-82
2022/08/02 04:50:49;;;;;;;7.60;3.27;;;20.90;99.90;;;;;;4994323;28;20190;-84
2022/08/02 04:53:15;;;;;;;4.37;2.80;;;20.80;99.90;;;;;;5009511;28;20209;-82
2022/08/02 04:55:42;;;;;;;2.40;2.20;;;20.90;99.90;;;;;;5001737;28;20489;-83
2022/08/02 04:58:07;;;;;;;6.40;3.83;;;21.00;99.90;;;;;;5006875;28;20444;-82
2022/08/02 05:00:36;;;;;;;10.13;4.90;;;21.20;99.90;;;;;;5001911;28;20496;-83
2022/08/02 05:03:01;;;;;;;10.03;4.20;;;21.30;99.90;;;;;;5006417;28;20235;-83
2022/08/02 05:05:27;;;;;;;13.00;5.50;;;21.50;99.90;;;;;;5015554;28;20462;-85
2022/08/02 05:07:52;;;;;;;10.80;5.20;;;21.70;99.90;;;;;;5019392;28;20210;-86
2022/08/02 05:10:18;;;;;;;15.70;6.10;;;21.70;99.90;;;;;;4994642;28;20186;-83
2022/08/02 05:12:44;;;;;;;12.03;5.60;;;21.70;99.90;;;;;;5007039;28;20202;-83
2022/08/02 05:15:15;;;;;;;7.23;5.00;;;21.70;99.90;;;;;;4982750;28;20841;-84
2022/08/02 05:17:41;;;;;;;11.23;5.60;;;21.70;99.90;;;;;;5007911;28;20188;-84
2022/08/02 05:20:07;;;;;;;7.57;5.30;;;21.70;99.90;;;;;;4983691;28;20511;-85
2022/08/02 05:22:33;;;;;;;13.17;5.40;;;21.80;99.90;;;;;;4985924;28;21112;-84
2022/08/02 05:24:59;;;;;;;6.13;4.67;;;21.80;99.90;;;;;;4993525;28;20553;-83
2022/08/02 05:27:24;;;;;;;7.57;4.90;;;21.80;99.90;;;;;;5011103;28;20212;-84
2022/08/02 05:29:50;;;;;;;9.10;5.07;;;21.80;99.90;;;;;;5011498;28;20195;-87
2022/08/02 05:32:17;;;;;;;11.10;5.13;;;21.80;99.90;;;;;;5008817;28;20187;-85
2022/08/02 05:34:43;;;;;;;11.10;5.70;;;21.70;99.90;;;;;;4998768;28;20495;-84
2022/08/02 05:37:08;;;;;;;7.13;5.10;;;21.70;99.90;;;;;;5004962;28;20823;-86
2022/08/02 05:39:34;;;;;;;9.33;5.30;;;21.70;99.90;;;;;;5000177;28;20274;-84
2022/08/02 05:42:00;;;;;;;10.63;5.30;;;21.80;99.90;;;;;;5003566;28;20608;-84
2022/08/02 05:44:25;;;;;;;11.13;5.67;;;21.90;99.90;;;;;;5000635;28;20205;-82
2022/08/02 05:46:51;;;;;;;12.83;5.10;;;22.10;99.90;;;;;;5000358;28;20201;-84
2022/08/02 05:49:17;;;;;;;9.53;4.80;;;22.50;99.90;;;;;;5002900;28;20244;-83
2022/08/02 05:51:49;;;;;;;8.13;5.17;;;23.70;99.90;;;;;;4984237;28;20236;-86
2022/08/02 05:54:22;;;;;;;13.93;4.80;;;27.00;99.90;;;;;;5009856;28;20272;-85
2022/08/02 05:56:59;;;;;;;11.70;4.63;;;30.60;99.90;;;;;;5002577;28;20452;-85
2022/08/02 05:59:46;;;;;;;9.27;4.80;;;33.40;99.90;;;;;;5005442;28;20440;-85
2022/08/02 06:02:54;;;;;;;11.80;4.40;;;35.70;99.90;;;;;;4986041;28;20434;-84
2022/08/02 06:05:20;;;;;;;6.33;4.03;;;37.50;99.90;;;;;;4976111;28;21368;-85
2022/08/02 06:07:48;;;;;;;21.67;4.20;;;38.80;99.90;;;;;;4984713;28;20423;-85
2022/08/02 06:10:15;;;;;;;10.40;4.17;;;40.00;99.90;;;;;;5003522;28;20466;-86
2022/08/02 06:12:59;;;;;;;10.00;3.43;;;41.20;99.90;;;;;;4991282;28;20780;-83
2022/08/02 06:15:26;;;;;;;6.47;2.80;;;42.20;99.90;;;;;;4993848;28;20496;-86
2022/08/02 06:17:51;;;;;;;7.57;3.57;;;42.70;99.90;;;;;;5007904;28;20484;-85
2022/08/02 06:20:19;;;;;;;9.23;4.10;;;43.20;99.90;;;;;;4997884;28;20441;-85
2022/08/02 06:22:45;;;;;;;8.17;3.83;;;42.80;95.60;;;;;;5008904;28;20183;-85
2022/08/02 06:25:12;;;;;;;9.33;3.80;;;42.90;92.00;;;;;;5011694;28;20555;-84
2022/08/02 06:27:39;;;;;;;6.83;3.40;;;43.20;87.20;;;;;;5006871;28;20441;-84
2022/08/02 06:30:09;;;;;;;8.50;3.77;;;43.70;81.80;;;;;;4986244;28;20425;-84
2022/08/02 06:32:35;;;;;;;11.03;3.93;;;44.60;78.30;;;;;;4991880;28;20525;-85
2022/08/02 06:35:01;;;;;;;7.10;3.23;;;45.00;72.00;;;;;;5003522;28;20537;-86
2022/08/02 06:37:41;;;;;;;8.17;2.40;;;45.50;67.20;;;;;;5004476;28;20274;-83
2022/08/02 06:40:20;;;;;;;7.60;2.90;;;46.50;63.40;;;;;;4987724;28;21660;-81
2022/08/02 06:42:51;;;;;;;4.30;2.37;;;47.60;60.40;;;;;;5008245;28;20476;-82
2022/08/02 06:45:17;;;;;;;8.27;2.37;;;48.40;57.40;;;;;;5006175;28;20506;-81
2022/08/02 06:47:44;;;;;;;6.33;2.77;;;48.80;54.40;;;;;;5001766;28;20436;-82
2022/08/02 06:50:10;;;;;;;6.73;2.90;;;49.20;51.20;;;;;;4985019;28;20273;-82
2022/08/02 06:52:36;;;;;;;4.97;2.53;;;49.50;48.50;;;;;;5004319;28;20437;-82
2022/08/02 06:55:03;;;;;;;3.30;2.23;;;49.60;45.00;;;;;;5007220;28;20471;-79
2022/08/02 06:57:30;;;;;;;9.73;2.93;;;49.80;42.50;;;;;;5005254;28;20643;-79
2022/08/02 06:59:57;;;;;;;12.17;3.30;;;49.80;40.20;;;;;;5003966;28;20499;-81
2022/08/02 07:02:22;;;;;;;2.63;2.43;;;49.90;39.00;;;;;;5004876;28;21120;-82
2022/08/02 07:04:49;;;;;;;7.23;3.50;;;49.70;36.00;;;;;;4983109;28;20556;-82
2022/08/02 07:07:14;;;;;;;11.57;3.40;;;49.70;34.30;;;;;;5003745;28;20286;-82
2022/08/02 07:09:40;;;;;;;8.10;3.47;;;49.40;32.30;;;;;;5001543;28;20473;-82
2022/08/02 07:12:05;;;;;;;3.90;3.30;;;50.00;32.40;;;;;;5005155;28;20200;-81
2022/08/02 07:14:31;;;;;;;4.13;3.47;;;50.70;32.60;;;;;;5007477;28;20202;-82
2022/08/02 07:16:57;;;;;;;3.73;3.40;;;51.10;31.50;;;;;;5005536;28;20191;-81
2022/08/02 07:19:23;;;;;;;4.37;3.23;;;50.80;29.60;;;;;;5006201;28;20191;-79
2022/08/02 07:21:48;;;;;;;4.50;3.77;;;50.00;26.80;;;;;;5005986;28;20778;-81
2022/08/02 07:24:14;;;;;;;3.50;3.20;;;50.00;26.50;;;;;;4990433;28;20244;-82
2022/08/02 07:26:39;;;;;;;3.43;3.13;;;50.40;27.50;;;;;;5002370;28;20195;-82
2022/08/02 07:29:05;;;;;;;5.43;2.90;;;50.80;26.70;;;;;;5007448;28;20175;-82
2022/08/02 07:31:30;;;;;;;3.30;2.90;;;51.20;26.80;;;;;;5003945;28;20210;-85
2022/08/02 07:33:59;;;;;;;4.73;2.70;;;51.80;27.10;;;;;;5002854;28;20218;-85
2022/08/02 07:36:25;;;;;;;2.63;2.43;;;52.50;27.00;;;;;;4991335;28;20621;-85
2022/08/02 07:38:50;;;;;;;3.10;2.07;;;53.00;26.20;;;;;;4985729;28;20190;-85
2022/08/02 07:41:16;;;;;;;4.93;2.47;;;53.50;26.10;;;;;;4986844;28;20195;-86
2022/08/02 07:43:42;;;;;;;2.10;1.90;;;53.70;25.40;;;;;;5005801;28;20745;-86
2022/08/02 07:46:10;;;;;;;2.30;2.20;;;54.30;25.30;;;;;;4991718;28;20224;-87
2022/08/02 07:48:36;;;;;;;3.03;2.45;;;54.40;24.60;;;;;;5005709;28;20171;-85
2022/08/02 07:51:01;;;;;;;2.33;1.80;;;54.50;23.20;;;;;;5011534;28;20243;-87
2022/08/02 07:53:30;;;;;;;3.50;2.27;;;54.50;22.70;;;;;;4988761;28;21426;-85
2022/08/02 07:55:56;;;;;;;3.90;2.30;;;54.60;21.90;;;;;;5004290;28;20203;-88
2022/08/02 07:58:21;;;;;;;7.03;2.22;;;54.70;21.00;;;;;;4991529;28;20273;-86
2022/08/02 08:00:47;;;;;;;4.03;2.00;;;54.50;19.70;;;;;;4998113;28;20830;-85
2022/08/02 08:03:13;;;;;;;2.65;2.22;;;54.50;18.90;;;;;;4990865;28;20269;-86
2022/08/02 08:05:39;;;;;;;4.00;2.40;;;54.60;18.90;;;;;;4996178;28;20206;-85
2022/08/02 08:08:05;;;;;;;2.80;2.00;;;54.40;18.80;;;;;;4989366;28;20650;-86
2022/08/02 08:10:33;;;;;;;2.20;2.00;;;54.10;17.40;;;;;;4988452;28;20252;-86
2022/08/02 08:12:58;;;;;;;3.50;2.27;;;54.20;17.30;;;;;;4992690;28;20261;-86
2022/08/02 08:15:24;;;;;;;5.17;2.13;;;53.70;16.10;;;;;;5007317;28;20237;-86
2022/08/02 08:17:50;;;;;;;3.53;1.67;;;53.70;15.80;;;;;;4988829;28;20693;-87
2022/08/02 08:20:18;;;;;;;5.63;1.70;;;53.80;16.20;;;;;;4987845;28;20183;-86
2022/08/02 08:22:47;;;;;;;4.57;1.80;;;53.90;15.60;;;;;;5018935;28;20650;-84
2022/08/02 08:25:15;;;;;;;1.70;1.53;;;53.40;24.10;;;;;;4993755;28;20228;-86
2022/08/02 08:27:48;;;;;;;2.43;1.80;;;52.90;13.50;;;;;;5014632;28;20182;-84
2022/08/02 08:30:15;;;;;;;1.90;1.63;;;52.50;22.10;;;;;;4990962;28;20956;-86
2022/08/02 08:32:40;;;;;;;2.50;1.80;;;51.20;10.30;;;;;;5007136;28;20483;-86
2022/08/02 08:35:07;;;;;;;3.70;2.27;;;51.20;11.80;;;;;;4991113;28;20465;-85
2022/08/02 08:37:34;;;;;;;2.13;1.40;;;51.80;13.10;;;;;;5005040;28;20182;-86
2022/08/02 08:39:59;;;;;;;3.43;2.17;;;51.80;13.10;;;;;;4984359;28;20430;-85
2022/08/02 08:42:26;;;;;;;2.90;1.90;;;52.20;13.10;;;;;;5010759;28;20441;-85
2022/08/02 08:44:53;;;;;;;2.33;1.40;;;53.00;15.10;;;;;;5009782;28;20295;-86
2022/08/02 08:47:21;;;;;;;2.17;2.07;;;53.40;15.50;;;;;;4989663;28;20186;-86
2022/08/02 08:49:50;;;;;;;1.77;1.60;;;53.60;15.10;;;;;;5004547;28;20187;-85
2022/08/02 08:52:18;;;;;;;1.93;1.73;;;54.00;15.00;;;;;;5008916;28;20542;-87
2022/08/02 08:54:50;;;;;;;2.63;2.07;;;54.20;15.00;;;;;;4985326;28;20203;-86
2022/08/02 08:57:18;;;;;;;1.87;1.70;;;54.40;15.20;;;;;;5010359;28;20193;-85
2022/08/02 08:59:44;;;;;;;2.10;1.83;;;54.50;13.90;;;;;;5004368;28;20187;-84
2022/08/02 09:02:10;;;;;;;2.30;1.50;;;54.30;13.60;;;;;;5004574;28;20194;-86
2022/08/02 09:04:36;;;;;;;4.60;1.83;;;53.80;13.20;;;;;;5005747;28;20840;-85
2022/08/02 09:07:01;;;;;;;2.17;1.83;;;53.80;11.80;;;;;;5006750;28;20273;-85
2022/08/02 09:09:27;;;;;;;2.20;1.67;;;53.10;10.30;;;;;;5004982;28;20186;-85
2022/08/02 09:11:53;;;;;;;3.50;2.20;;;52.80;10.00;;;;;;5004591;28;20333;-85
2022/08/02 09:14:27;;;;;;;3.47;1.80;;;52.10;18.60;;;;;;4989050;28;20770;-84
2022/08/02 09:17:04;;;;;;;1.70;1.60;;;51.40;8.60;;;;;;5005631;28;20241;-86
2022/08/02 09:19:30;;;;;;;2.90;1.50;;;50.80;8.00;;;;;;5001915;28;20452;-85
2022/08/02 09:22:07;;;;;;;2.40;2.13;;;50.80;9.30;;;;;;5003054;28;20504;-85
2022/08/02 09:24:53;;;;;;;1.53;1.20;;;51.30;10.10;;;;;;4999814;28;21663;-85
2022/08/02 09:27:21;;;;;;;2.30;1.73;;;51.60;11.10;;;;;;4991055;28;20976;-85
2022/08/02 09:29:52;;;;;;;1.57;1.47;;;51.70;11.40;;;;;;5008315;28;20460;-86
2022/08/02 09:32:18;;;;;;;1.80;1.53;;;52.20;11.80;;;;;;5004312;28;20444;-86
2022/08/02 09:34:45;;;;;;;4.17;1.90;;;52.20;11.80;;;;;;4999894;28;20547;-86
2022/08/02 09:37:30;;;;;;;2.57;1.90;;;52.20;11.20;;;;;;5001572;28;20208;-87
2022/08/02 09:40:02;;;;;;;2.47;1.47;;;52.20;10.10;;;;;;5003784;28;20472;-86
2022/08/02 09:42:28;;;;;;;1.80;1.33;;;52.10;10.10;;;;;;4989560;28;20495;-85
2022/08/02 09:44:58;;;;;;;3.83;1.60;;;49.70;6.00;;;;;;5011601;28;20481;-84
2022/08/02 09:47:24;;;;;;;1.63;1.53;;;47.80;4.50;;;;;;4991808;28;20446;-86
2022/08/02 09:49:52;;;;;;;1.60;1.23;;;47.50;5.60;;;;;;4989206;28;20497;-85
2022/08/02 09:52:29;;;;;;;4.00;1.60;;;46.20;4.50;;;;;;5012328;28;20849;-85
2022/08/02 09:55:05;;;;;;;3.40;2.10;;;44.80;4.30;;;;;;4990654;28;20477;-85
2022/08/02 09:57:32;;;;;;;2.40;1.90;;;44.40;5.00;;;;;;4990685;28;20433;-85
2022/08/02 09:59:58;;;;;;;2.83;1.83;;;42.60;4.00;;;;;;5007156;28;21016;-85
2022/08/02 10:02:24;;;;;;;4.33;2.10;;;42.90;6.20;;;;;;5012655;28;20821;-85
2022/08/02 10:04:50;;;;;;;3.03;1.60;;;42.50;7.20;;;;;;5003513;28;20474;-86
2022/08/02 10:07:16;;;;;;;2.40;1.77;;;41.30;6.30;;;;;;4990333;28;20525;-85
2022/08/02 10:09:44;;;;;;;2.57;1.73;;;42.00;9.40;;;;;;5006764;28;21214;-86
2022/08/02 10:12:11;;;;;;;1.90;1.60;;;42.80;10.90;;;;;;5010433;28;20473;-85
2022/08/02 10:14:37;;;;;;;3.47;1.60;;;43.40;13.00;;;;;;5003800;28;20458;-85
2022/08/02 10:17:06;;;;;;;2.17;1.60;;;44.10;14.30;;;;;;5009606;28;20468;-86
2022/08/02 10:19:33;;;;;;;3.10;1.90;;;44.80;15.50;;;;;;5006325;28;20198;-85
2022/08/02 10:22:09;;;;;;;2.50;1.40;;;45.30;15.70;;;;;;4987107;28;20449;-85
2022/08/02 10:24:36;;;;;;;5.00;1.90;;;45.70;15.70;;;;;;4997061;28;20883;-84
2022/08/02 10:27:03;;;;;;;2.17;1.30;;;46.00;16.00;;;;;;5003312;28;20792;-85
2022/08/02 10:29:37;;;;;;;1.87;1.60;;;46.20;16.10;;;;;;5008511;28;20430;-84
2022/08/02 10:32:03;;;;;;;3.67;1.87;;;46.30;15.70;;;;;;5002435;28;20442;-85
2022/08/02 10:34:36;;;;;;;1.90;1.77;;;46.50;15.90;;;;;;5002595;28;22234;-85
2022/08/02 10:37:05;;;;;;;3.67;1.90;;;46.70;16.40;;;;;;5004726;28;20430;-85
2022/08/02 10:39:41;;;;;;;2.23;1.73;;;47.00;16.90;;;;;;4984574;28;20437;-84
2022/08/02 10:42:08;;;;;;;6.03;1.70;;;46.40;15.00;;;;;;5003025;28;20442;-84
2022/08/02 10:44:36;;;;;;;10.40;2.67;;;45.20;11.80;;;;;;4989541;28;20475;-85
2022/08/02 10:47:31;;;;;;;2.20;1.73;;;45.10;12.20;;;;;;4986548;28;20443;-86
2022/08/02 10:49:58;;;;;;;4.20;2.00;;;45.40;23.20;;;;;;4981566;28;20473;-86
2022/08/02 10:52:31;;;;;;;3.23;2.17;;;45.50;13.50;;;;;;5006604;28;20441;-84
2022/08/02 10:55:02;;;;;;;2.03;1.80;;;45.70;13.60;;;;;;5001171;28;20481;-86
2022/08/02 10:57:30;;;;;;;3.17;1.83;;;46.20;14.70;;;;;;5001428;28;20445;-87
2022/08/02 11:00:20;;;;;;;2.30;1.70;;;46.20;14.10;;;;;;4983473;28;21161;-86
2022/08/02 11:02:47;;;;;;;4.90;2.30;;;45.90;13.30;;;;;;4995590;28;20446;-86
2022/08/02 11:05:18;;;;;;;2.10;1.90;;;45.70;12.90;;;;;;5000597;28;20995;-85
2022/08/02 11:07:48;;;;;;;2.53;1.80;;;45.40;12.40;;;;;;5002418;28;20797;-85
2022/08/02 11:10:33;;;;;;;2.73;1.87;;;44.10;10.00;;;;;;4986595;28;20961;-85
2022/08/02 11:13:00;;;;;;;3.60;1.70;;;43.50;9.10;;;;;;5003706;28;20434;-85
2022/08/02 11:15:26;;;;;;;4.37;1.77;;;44.00;11.10;;;;;;4996087;28;20978;-86
2022/08/02 11:17:53;;;;;;;4.07;1.67;;;44.60;12.30;;;;;;4998819;28;20595;-86
2022/08/02 11:20:20;;;;;;;2.00;1.40;;;45.10;12.50;;;;;;5005422;28;20214;-85
2022/08/02 11:22:48;;;;;;;2.43;1.80;;;45.10;12.70;;;;;;5006894;28;20435;-85
2022/08/02 11:25:23;;;;;;;2.10;1.50;;;45.30;12.60;;;;;;5004507;28;20473;-84
2022/08/02 11:28:09;;;;;;;3.23;1.37;;;45.30;12.70;;;;;;4987902;28;20881;-87
2022/08/02 11:30:36;;;;;;;2.93;1.60;;;45.20;11.80;;;;;;4987226;28;20493;-86
2022/08/02 11:33:05;;;;;;;6.00;2.20;;;44.80;10.60;;;;;;5003242;28;20438;-85
2022/08/02 11:35:36;;;;;;;3.63;1.63;;;43.60;8.70;;;;;;5005663;28;20449;-85
2022/08/02 11:38:19;;;;;;;2.50;2.00;;;42.70;7.50;;;;;;5008183;28;20843;-83
2022/08/02 11:40:48;;;;;;;3.87;1.97;;;42.00;5.90;;;;;;4995251;28;20504;-85
2022/08/02 11:43:19;;;;;;;3.20;2.10;;;40.80;5.30;;;;;;5008080;28;20800;-85
2022/08/02 11:45:45;;;;;;;3.53;2.20;;;40.40;6.20;;;;;;5006633;28;20488;-85
2022/08/02 11:48:11;;;;;;;3.40;2.27;;;39.90;6.40;;;;;;5010127;28;20511;-85
2022/08/02 11:50:36;;;;;;;2.23;1.83;;;39.40;6.50;;;;;;4995545;28;20441;-85
2022/08/02 11:53:12;;;;;;;3.10;1.90;;;39.00;7.20;;;;;;5004472;28;20745;-86
2022/08/02 11:55:37;;;;;;;3.10;1.93;;;38.80;8.00;;;;;;5006427;28;20194;-86
2022/08/02 11:58:06;;;;;;;3.10;2.40;;;38.40;8.60;;;;;;5013876;28;21023;-85
2022/08/02 12:00:32;;;;;;;3.33;2.40;;;38.20;9.60;;;;;;4993313;28;20572;-85
2022/08/02 12:02:58;;;;;;;5.20;2.37;;;37.80;10.30;;;;;;5002416;28;20443;-87
2022/08/02 12:05:23;;;;;;;2.87;2.37;;;37.50;10.90;;;;;;5007694;28;20229;-85
2022/08/02 12:07:50;;;;;;;5.33;2.30;;;37.20;12.10;;;;;;5009373;28;20743;-86
2022/08/02 12:10:19;;;;;;;6.23;1.87;;;37.10;11.90;;;;;;4991455;28;20186;-84
2022/08/02 12:12:57;;;;;;;2.70;2.20;;;37.20;13.30;;;;;;5005850;28;20447;-86
2022/08/02 12:15:36;;;;;;;2.77;2.30;;;37.90;16.30;;;;;;5002979;28;20469;-85
2022/08/02 12:20:47;;;;;;;2.93;2.47;;;39.30;19.80;;;;;;5011514;28;20808;-86
2022/08/02 12:23:13;;;;;;;2.20;2.00;;;40.00;21.20;;;;;;5005223;28;20532;-85
2022/08/02 12:25:39;;;;;;;3.20;2.13;;;40.20;21.40;;;;;;4989235;28;20241;-86
2022/08/02 12:28:23;;;;;;;2.67;2.17;;;39.90;20.20;;;;;;5003597;28;20175;-86
2022/08/02 12:30:56;;;;;;;4.27;2.00;;;39.50;18.90;;;;;;4992833;28;20438;-85
2022/08/02 12:33:23;;;;;;;2.10;1.90;;;39.00;18.20;;;;;;4988078;28;20507;-86
2022/08/02 12:35:49;;;;;;;3.27;2.33;;;38.50;17.40;;;;;;5007158;28;21833;-85
2022/08/02 12:38:15;;;;;;;3.20;2.10;;;38.10;17.60;;;;;;5007067;28;20444;-87
2022/08/02 12:40:40;;;;;;;3.03;2.17;;;37.80;17.50;;;;;;5006832;28;20781;-86
2022/08/02 12:43:14;;;;;;;4.67;2.10;;;37.80;17.90;;;;;;5001418;28;20830;-85
2022/08/02 12:45:51;;;;;;;2.00;1.90;;;37.70;18.90;;;;;;5004961;28;20210;-85
2022/08/02 12:48:30;;;;;;;4.60;2.57;;;38.10;20.40;;;;;;4989525;28;20457;-85
2022/08/02 12:50:55;;;;;;;3.17;2.10;;;38.60;21.40;;;;;;5007644;28;20425;-86
2022/08/02 12:53:29;;;;;;;7.37;2.47;;;39.30;23.20;;;;;;5005274;28;20430;-85
2022/08/02 12:55:56;;;;;;;2.80;2.10;;;39.70;24.10;;;;;;4984773;28;20203;-85
2022/08/02 12:58:24;;;;;;;1.70;1.60;;;39.90;23.60;;;;;;5008356;28;20799;-86